sensor_id;sensor_type;location;lat;lon;timestamp;pressure;altitude;pressure_sealevel;temperature;humidity
13235;BME280;6683;48.506;9.050;2023-05-27T00:01:02;98734.63;;;15.79;55.61
13235;BME280;6683;48.506;9.050;2023-05-27T00:04:04;98737.94;;;15.75;56.02
13235;BME280;6683;48.506;9.050;2023-05-27T00:07:07;98735.88;;;15.70;55.94
13235;BME280;6683;48.506;9.050;2023-05-27T00:10:11;98741.81;;;15.66;56.15
13235;BME280;6683;48.506;9.050;2023-05-27T00:13:13;98736.28;;;15.61;56.20
13235;BME280;6683;48.506;9.050;2023-05-27T00:16:16;98734.22;;;15.56;56.32
13235;BME280;6683;48.506;9.050;2023-05-27T00:19:18;98741.81;;;15.53;56.65
13235;BME280;6683;48.506;9.050;2023-05-27T00:22:20;98733.63;;;15.48;56.54
13235;BME280;6683;48.506;9.050;2023-05-27T00:25:25;98738.53;;;15.44;56.70
13235;BME280;6683;48.506;9.050;2023-05-27T00:28:27;98737.47;;;15.39;56.74
13235;BME280;6683;48.506;9.050;2023-05-27T00:31:32;98749.75;;;15.33;56.91
13235;BME280;6683;48.506;9.050;2023-05-27T00:34:34;98744.00;;;15.30;57.10
13235;BME280;6683;48.506;9.050;2023-05-27T00:37:37;98746.47;;;15.25;57.05
13235;BME280;6683;48.506;9.050;2023-05-27T00:40:41;98754.44;;;15.18;57.21
13235;BME280;6683;48.506;9.050;2023-05-27T00:43:44;98749.94;;;15.12;57.17
13235;BME280;6683;48.506;9.050;2023-05-27T00:46:47;98755.22;;;15.05;57.51
13235;BME280;6683;48.506;9.050;2023-05-27T00:49:50;98753.38;;;14.99;57.49
13235;BME280;6683;48.506;9.050;2023-05-27T00:52:53;98748.66;;;14.95;57.60
13235;BME280;6683;48.506;9.050;2023-05-27T00:55:59;98744.13;;;14.89;57.62
13235;BME280;6683;48.506;9.050;2023-05-27T00:59:02;98740.41;;;14.83;57.69
13235;BME280;6683;48.506;9.050;2023-05-27T01:02:05;98743.09;;;14.77;57.56
13235;BME280;6683;48.506;9.050;2023-05-27T01:05:08;98744.09;;;14.76;58.03
13235;BME280;6683;48.506;9.050;2023-05-27T01:08:28;98737.75;;;14.70;58.08
13235;BME280;6683;48.506;9.050;2023-05-27T01:11:40;98733.84;;;14.66;58.14
13235;BME280;6683;48.506;9.050;2023-05-27T01:14:44;98737.72;;;14.64;58.28
13235;BME280;6683;48.506;9.050;2023-05-27T01:17:48;98736.47;;;14.60;58.60
13235;BME280;6683;48.506;9.050;2023-05-27T01:20:59;98727.28;;;14.56;58.45
13235;BME280;6683;48.506;9.050;2023-05-27T01:24:07;98734.00;;;14.52;58.57
13235;BME280;6683;48.506;9.050;2023-05-27T01:27:10;98731.50;;;14.50;58.58
13235;BME280;6683;48.506;9.050;2023-05-27T01:30:16;98723.13;;;14.47;58.70
13235;BME280;6683;48.506;9.050;2023-05-27T01:33:22;98722.91;;;14.41;58.86
13235;BME280;6683;48.506;9.050;2023-05-27T01:36:31;98722.47;;;14.38;58.85
13235;BME280;6683;48.506;9.050;2023-05-27T01:39:37;98716.75;;;14.34;58.92
13235;BME280;6683;48.506;9.050;2023-05-27T01:42:42;98715.31;;;14.32;59.06
13235;BME280;6683;48.506;9.050;2023-05-27T01:45:46;98720.00;;;14.30;59.09
13235;BME280;6683;48.506;9.050;2023-05-27T01:48:48;98711.75;;;14.25;59.20
13235;BME280;6683;48.506;9.050;2023-05-27T01:51:51;98709.50;;;14.22;59.21
13235;BME280;6683;48.506;9.050;2023-05-27T01:54:54;98697.44;;;14.19;59.27
13235;BME280;6683;48.506;9.050;2023-05-27T01:57:57;98709.09;;;14.18;59.39
13235;BME280;6683;48.506;9.050;2023-05-27T02:01:00;98707.66;;;14.16;59.53
13235;BME280;6683;48.506;9.050;2023-05-27T02:04:03;98702.72;;;14.13;59.52
13235;BME280;6683;48.506;9.050;2023-05-27T02:07:05;98711.72;;;14.12;59.51
13235;BME280;6683;48.506;9.050;2023-05-27T02:10:10;98702.50;;;14.08;59.58
13235;BME280;6683;48.506;9.050;2023-05-27T02:13:13;98704.69;;;14.04;59.66
13235;BME280;6683;48.506;9.050;2023-05-27T02:16:16;98710.41;;;14.01;59.69
13235;BME280;6683;48.506;9.050;2023-05-27T02:19:18;98706.53;;;13.97;59.74
13235;BME280;6683;48.506;9.050;2023-05-27T02:22:22;98701.59;;;13.94;59.73
13235;BME280;6683;48.506;9.050;2023-05-27T02:25:27;98699.13;;;13.93;59.87
13235;BME280;6683;48.506;9.050;2023-05-27T02:28:29;98695.88;;;13.91;60.00
13235;BME280;6683;48.506;9.050;2023-05-27T02:31:32;98701.16;;;13.91;59.96
13235;BME280;6683;48.506;9.050;2023-05-27T02:34:34;98696.88;;;13.90;60.04
13235;BME280;6683;48.506;9.050;2023-05-27T02:37:38;98705.22;;;13.87;60.01
13235;BME280;6683;48.506;9.050;2023-05-27T02:40:44;98697.28;;;13.87;60.19
13235;BME280;6683;48.506;9.050;2023-05-27T02:43:47;98697.28;;;13.87;60.22
13235;BME280;6683;48.506;9.050;2023-05-27T02:46:49;98704.41;;;13.86;60.14
13235;BME280;6683;48.506;9.050;2023-05-27T02:49:55;98708.88;;;13.86;60.36
13235;BME280;6683;48.506;9.050;2023-05-27T02:52:57;98699.66;;;13.82;60.16
13235;BME280;6683;48.506;9.050;2023-05-27T02:56:01;98707.41;;;13.77;60.13
13235;BME280;6683;48.506;9.050;2023-05-27T02:59:09;98703.69;;;13.71;60.13
13235;BME280;6683;48.506;9.050;2023-05-27T03:02:12;98690.19;;;13.66;60.12
13235;BME280;6683;48.506;9.050;2023-05-27T03:05:14;98697.06;;;13.60;60.16
13235;BME280;6683;48.506;9.050;2023-05-27T03:08:17;98698.47;;;13.56;60.09
13235;BME280;6683;48.506;9.050;2023-05-27T03:11:20;98697.44;;;13.51;60.39
13235;BME280;6683;48.506;9.050;2023-05-27T03:14:23;98695.16;;;13.48;60.38
13235;BME280;6683;48.506;9.050;2023-05-27T03:17:26;98697.56;;;13.43;60.33
13235;BME280;6683;48.506;9.050;2023-05-27T03:20:29;98702.63;;;13.38;60.37
13235;BME280;6683;48.506;9.050;2023-05-27T03:23:31;98702.38;;;13.33;60.46
13235;BME280;6683;48.506;9.050;2023-05-27T03:26:35;98703.75;;;13.29;60.42
13235;BME280;6683;48.506;9.050;2023-05-27T03:29:40;98708.81;;;13.24;60.68
13235;BME280;6683;48.506;9.050;2023-05-27T03:32:42;98705.91;;;13.19;60.58
13235;BME280;6683;48.506;9.050;2023-05-27T03:35:45;98709.31;;;13.13;60.50
13235;BME280;6683;48.506;9.050;2023-05-27T03:38:48;98706.63;;;13.06;60.52
13235;BME280;6683;48.506;9.050;2023-05-27T03:41:52;98709.00;;;13.01;60.58
13235;BME280;6683;48.506;9.050;2023-05-27T03:44:54;98701.81;;;12.95;60.66
13235;BME280;6683;48.506;9.050;2023-05-27T03:47:56;98713.97;;;12.90;60.78
13235;BME280;6683;48.506;9.050;2023-05-27T03:50:58;98713.53;;;12.86;60.69
13235;BME280;6683;48.506;9.050;2023-05-27T03:54:01;98715.53;;;12.84;60.88
13235;BME280;6683;48.506;9.050;2023-05-27T03:57:06;98716.09;;;12.79;60.76
13235;BME280;6683;48.506;9.050;2023-05-27T04:00:10;98710.16;;;12.77;61.03
13235;BME280;6683;48.506;9.050;2023-05-27T04:03:14;98711.34;;;12.75;61.03
13235;BME280;6683;48.506;9.050;2023-05-27T04:06:17;98716.66;;;12.75;61.16
13235;BME280;6683;48.506;9.050;2023-05-27T04:09:19;98716.03;;;12.73;61.25
13235;BME280;6683;48.506;9.050;2023-05-27T04:12:23;98707.09;;;12.74;61.43
13235;BME280;6683;48.506;9.050;2023-05-27T04:15:26;98712.19;;;12.75;61.50
13235;BME280;6683;48.506;9.050;2023-05-27T04:18:29;98705.69;;;12.78;61.59
13235;BME280;6683;48.506;9.050;2023-05-27T04:21:31;98706.97;;;12.82;61.80
13235;BME280;6683;48.506;9.050;2023-05-27T04:24:34;98712.69;;;12.85;61.75
13235;BME280;6683;48.506;9.050;2023-05-27T04:27:37;98712.34;;;12.89;61.91
13235;BME280;6683;48.506;9.050;2023-05-27T04:30:40;98717.88;;;12.94;61.81
13235;BME280;6683;48.506;9.050;2023-05-27T04:33:43;98715.69;;;12.97;61.86
13235;BME280;6683;48.506;9.050;2023-05-27T04:36:46;98714.28;;;13.01;61.95
13235;BME280;6683;48.506;9.050;2023-05-27T04:39:50;98719.88;;;13.06;61.61
13235;BME280;6683;48.506;9.050;2023-05-27T04:42:54;98717.47;;;13.11;61.95
13235;BME280;6683;48.506;9.050;2023-05-27T04:45:57;98716.72;;;13.17;62.05
13235;BME280;6683;48.506;9.050;2023-05-27T04:49:01;98716.97;;;13.22;62.04
13235;BME280;6683;48.506;9.050;2023-05-27T04:52:03;98717.84;;;13.29;62.18
13235;BME280;6683;48.506;9.050;2023-05-27T04:55:09;98712.78;;;13.34;61.95
13235;BME280;6683;48.506;9.050;2023-05-27T04:58:13;98715.31;;;13.42;62.19
13235;BME280;6683;48.506;9.050;2023-05-27T05:01:15;98715.59;;;13.54;62.22
13235;BME280;6683;48.506;9.050;2023-05-27T05:04:23;98713.63;;;13.62;62.20
13235;BME280;6683;48.506;9.050;2023-05-27T05:07:25;98714.50;;;13.70;62.05
13235;BME280;6683;48.506;9.050;2023-05-27T05:10:29;98709.25;;;13.76;62.01
13235;BME280;6683;48.506;9.050;2023-05-27T05:13:33;98718.03;;;13.83;61.96
13235;BME280;6683;48.506;9.050;2023-05-27T05:16:35;98708.31;;;13.90;61.87
13235;BME280;6683;48.506;9.050;2023-05-27T05:19:38;98716.09;;;13.98;61.85
13235;BME280;6683;48.506;9.050;2023-05-27T05:22:40;98710.25;;;14.09;61.88
13235;BME280;6683;48.506;9.050;2023-05-27T05:25:42;98711.34;;;14.21;62.09
13235;BME280;6683;48.506;9.050;2023-05-27T05:28:46;98711.66;;;14.39;62.30
13235;BME280;6683;48.506;9.050;2023-05-27T05:31:49;98714.41;;;14.59;62.33
13235;BME280;6683;48.506;9.050;2023-05-27T05:34:52;98716.50;;;14.77;62.16
13235;BME280;6683;48.506;9.050;2023-05-27T05:37:54;98713.88;;;14.96;62.41
13235;BME280;6683;48.506;9.050;2023-05-27T05:40:57;98710.66;;;15.20;62.19
13235;BME280;6683;48.506;9.050;2023-05-27T05:44:00;98706.38;;;15.39;62.00
13235;BME280;6683;48.506;9.050;2023-05-27T05:47:03;98708.88;;;15.60;61.99
13235;BME280;6683;48.506;9.050;2023-05-27T05:50:07;98712.09;;;15.82;61.75
13235;BME280;6683;48.506;9.050;2023-05-27T05:53:10;98704.28;;;16.00;61.66
13235;BME280;6683;48.506;9.050;2023-05-27T05:56:13;98705.47;;;16.17;61.40
13235;BME280;6683;48.506;9.050;2023-05-27T05:59:17;98711.59;;;16.31;61.21
13235;BME280;6683;48.506;9.050;2023-05-27T06:02:19;98710.50;;;16.45;60.92
13235;BME280;6683;48.506;9.050;2023-05-27T06:05:22;98711.09;;;16.60;60.69
13235;BME280;6683;48.506;9.050;2023-05-27T06:08:26;98707.09;;;16.75;60.29
13235;BME280;6683;48.506;9.050;2023-05-27T06:11:28;98708.69;;;16.90;60.26
13235;BME280;6683;48.506;9.050;2023-05-27T06:14:32;98703.06;;;17.04;60.09
13235;BME280;6683;48.506;9.050;2023-05-27T06:17:35;98699.47;;;17.17;59.68
13235;BME280;6683;48.506;9.050;2023-05-27T06:20:37;98694.25;;;17.28;59.30
13235;BME280;6683;48.506;9.050;2023-05-27T06:23:39;98692.28;;;17.42;59.28
13235;BME280;6683;48.506;9.050;2023-05-27T06:26:41;98687.09;;;17.53;59.19
13235;BME280;6683;48.506;9.050;2023-05-27T06:29:46;98690.69;;;17.66;58.97
13235;BME280;6683;48.506;9.050;2023-05-27T06:32:48;98693.84;;;17.81;58.57
13235;BME280;6683;48.506;9.050;2023-05-27T06:35:50;98690.00;;;17.95;58.40
13235;BME280;6683;48.506;9.050;2023-05-27T06:38:53;98686.84;;;18.04;57.93
13235;BME280;6683;48.506;9.050;2023-05-27T06:41:56;98681.56;;;18.16;57.73
13235;BME280;6683;48.506;9.050;2023-05-27T06:44:59;98688.00;;;18.26;57.63
13235;BME280;6683;48.506;9.050;2023-05-27T06:48:02;98685.78;;;18.42;57.21
13235;BME280;6683;48.506;9.050;2023-05-27T06:51:05;98683.53;;;18.57;57.02
13235;BME280;6683;48.506;9.050;2023-05-27T06:54:08;98679.00;;;18.75;56.70
13235;BME280;6683;48.506;9.050;2023-05-27T06:57:11;98681.63;;;18.93;56.28
13235;BME280;6683;48.506;9.050;2023-05-27T07:00:16;98680.03;;;19.15;56.09
13235;BME280;6683;48.506;9.050;2023-05-27T07:03:19;98677.69;;;19.37;55.75
13235;BME280;6683;48.506;9.050;2023-05-27T07:06:21;98678.16;;;19.57;55.47
13235;BME280;6683;48.506;9.050;2023-05-27T07:09:23;98681.91;;;19.79;55.01
13235;BME280;6683;48.506;9.050;2023-05-27T07:12:26;98675.91;;;20.01;54.46
13235;BME280;6683;48.506;9.050;2023-05-27T07:15:30;98679.66;;;20.23;54.12
13235;BME280;6683;48.506;9.050;2023-05-27T07:18:32;98676.56;;;20.42;53.57
13235;BME280;6683;48.506;9.050;2023-05-27T07:21:34;98685.50;;;20.59;52.98
13235;BME280;6683;48.506;9.050;2023-05-27T07:24:37;98682.88;;;20.76;52.78
13235;BME280;6683;48.506;9.050;2023-05-27T07:27:39;98682.59;;;20.89;52.23
13235;BME280;6683;48.506;9.050;2023-05-27T07:30:43;98671.94;;;21.06;51.91
13235;BME280;6683;48.506;9.050;2023-05-27T07:33:45;98671.69;;;21.24;51.72
13235;BME280;6683;48.506;9.050;2023-05-27T07:36:48;98668.22;;;21.40;51.26
13235;BME280;6683;48.506;9.050;2023-05-27T07:39:50;98666.81;;;21.54;50.91
13235;BME280;6683;48.506;9.050;2023-05-27T07:42:53;98668.69;;;21.70;50.58
13235;BME280;6683;48.506;9.050;2023-05-27T07:45:56;98664.13;;;21.87;50.37
13235;BME280;6683;48.506;9.050;2023-05-27T07:48:59;98660.34;;;22.05;49.94
13235;BME280;6683;48.506;9.050;2023-05-27T07:52:01;98658.41;;;22.22;49.48
13235;BME280;6683;48.506;9.050;2023-05-27T07:55:05;98653.53;;;22.41;49.09
13235;BME280;6683;48.506;9.050;2023-05-27T07:58:07;98651.84;;;22.56;48.81
13235;BME280;6683;48.506;9.050;2023-05-27T08:01:11;98646.66;;;22.71;48.40
13235;BME280;6683;48.506;9.050;2023-05-27T08:04:13;98647.88;;;22.85;48.09
13235;BME280;6683;48.506;9.050;2023-05-27T08:07:15;98634.25;;;22.97;47.81
13235;BME280;6683;48.506;9.050;2023-05-27T08:10:18;98640.50;;;23.02;47.10
13235;BME280;6683;48.506;9.050;2023-05-27T08:13:20;98635.16;;;23.08;46.95
13235;BME280;6683;48.506;9.050;2023-05-27T08:16:24;98632.53;;;23.18;46.55
13235;BME280;6683;48.506;9.050;2023-05-27T08:19:27;98629.41;;;23.26;46.88
13235;BME280;6683;48.506;9.050;2023-05-27T08:22:30;98629.78;;;23.34;46.38
13235;BME280;6683;48.506;9.050;2023-05-27T08:25:32;98621.44;;;23.41;46.30
13235;BME280;6683;48.506;9.050;2023-05-27T08:28:35;98614.81;;;23.53;46.08
13235;BME280;6683;48.506;9.050;2023-05-27T08:31:39;98618.38;;;23.64;45.74
13235;BME280;6683;48.506;9.050;2023-05-27T08:34:41;98619.00;;;23.76;45.38
13235;BME280;6683;48.506;9.050;2023-05-27T08:37:44;98613.91;;;23.84;44.93
13235;BME280;6683;48.506;9.050;2023-05-27T08:40:47;98606.97;;;23.94;45.00
13235;BME280;6683;48.506;9.050;2023-05-27T08:43:50;98602.50;;;24.09;44.90
13235;BME280;6683;48.506;9.050;2023-05-27T08:46:55;98593.38;;;24.25;44.64
13235;BME280;6683;48.506;9.050;2023-05-27T08:49:58;98590.72;;;24.35;44.60
13235;BME280;6683;48.506;9.050;2023-05-27T08:53:01;98598.03;;;24.50;44.05
13235;BME280;6683;48.506;9.050;2023-05-27T08:56:05;98594.53;;;24.59;43.85
13235;BME280;6683;48.506;9.050;2023-05-27T08:59:11;98586.22;;;24.71;43.74
13235;BME280;6683;48.506;9.050;2023-05-27T09:02:15;98584.91;;;24.84;43.57
13235;BME280;6683;48.506;9.050;2023-05-27T09:05:19;98583.31;;;24.93;43.24
13235;BME280;6683;48.506;9.050;2023-05-27T09:08:23;98580.59;;;25.03;43.02
13235;BME280;6683;48.506;9.050;2023-05-27T09:11:26;98580.06;;;25.11;42.99
13235;BME280;6683;48.506;9.050;2023-05-27T09:14:32;98575.47;;;25.21;42.66
13235;BME280;6683;48.506;9.050;2023-05-27T09:17:40;98568.94;;;25.32;42.30
13235;BME280;6683;48.506;9.050;2023-05-27T09:20:43;98576.25;;;25.47;42.26
13235;BME280;6683;48.506;9.050;2023-05-27T09:23:45;98571.38;;;25.59;41.88
13235;BME280;6683;48.506;9.050;2023-05-27T09:26:50;98562.19;;;25.65;41.57
13235;BME280;6683;48.506;9.050;2023-05-27T09:29:53;98565.91;;;25.79;41.48
13235;BME280;6683;48.506;9.050;2023-05-27T09:33:02;98555.63;;;25.86;41.24
13235;BME280;6683;48.506;9.050;2023-05-27T09:36:07;98549.09;;;25.92;41.14
13235;BME280;6683;48.506;9.050;2023-05-27T09:39:10;98556.88;;;26.04;41.55
13235;BME280;6683;48.506;9.050;2023-05-27T09:42:13;98546.88;;;26.14;40.88
13235;BME280;6683;48.506;9.050;2023-05-27T09:45:17;98546.03;;;26.24;40.59
13235;BME280;6683;48.506;9.050;2023-05-27T09:48:23;98545.13;;;26.39;40.18
13235;BME280;6683;48.506;9.050;2023-05-27T09:51:28;98538.00;;;26.48;40.31
13235;BME280;6683;48.506;9.050;2023-05-27T09:54:31;98537.41;;;26.56;40.01
13235;BME280;6683;48.506;9.050;2023-05-27T09:57:35;98524.91;;;26.65;39.77
13235;BME280;6683;48.506;9.050;2023-05-27T10:00:38;98527.28;;;26.76;38.97
13235;BME280;6683;48.506;9.050;2023-05-27T10:03:43;98537.72;;;26.93;39.14
13235;BME280;6683;48.506;9.050;2023-05-27T10:06:46;98528.66;;;27.08;39.07
13235;BME280;6683;48.506;9.050;2023-05-27T10:09:49;98518.50;;;27.18;38.28
13235;BME280;6683;48.506;9.050;2023-05-27T10:12:53;98518.19;;;27.25;38.02
13235;BME280;6683;48.506;9.050;2023-05-27T10:15:56;98523.25;;;27.31;37.89
13235;BME280;6683;48.506;9.050;2023-05-27T10:19:00;98519.97;;;27.39;37.46
13235;BME280;6683;48.506;9.050;2023-05-27T10:22:09;98518.75;;;27.50;37.27
13235;BME280;6683;48.506;9.050;2023-05-27T10:25:13;98515.59;;;27.67;37.65
13235;BME280;6683;48.506;9.050;2023-05-27T10:28:29;98514.31;;;27.83;37.14
13235;BME280;6683;48.506;9.050;2023-05-27T10:31:32;98515.28;;;27.97;36.87
13235;BME280;6683;48.506;9.050;2023-05-27T10:34:37;98502.22;;;27.99;36.27
13235;BME280;6683;48.506;9.050;2023-05-27T10:37:41;98494.50;;;28.06;36.27
13235;BME280;6683;48.506;9.050;2023-05-27T10:40:46;98497.00;;;28.21;36.37
13235;BME280;6683;48.506;9.050;2023-05-27T10:43:55;98488.56;;;28.41;35.93
13235;BME280;6683;48.506;9.050;2023-05-27T10:47:03;98488.06;;;28.58;35.32
13235;BME280;6683;48.506;9.050;2023-05-27T10:50:14;98487.69;;;28.65;34.88
13235;BME280;6683;48.506;9.050;2023-05-27T10:53:18;98483.41;;;28.77;34.92
13235;BME280;6683;48.506;9.050;2023-05-27T10:56:22;98485.16;;;28.87;34.31
13235;BME280;6683;48.506;9.050;2023-05-27T10:59:49;98471.41;;;28.97;34.47
13235;BME280;6683;48.506;9.050;2023-05-27T11:02:52;98480.69;;;29.09;33.99
13235;BME280;6683;48.506;9.050;2023-05-27T11:06:01;98479.22;;;29.17;33.40
13235;BME280;6683;48.506;9.050;2023-05-27T11:09:05;98464.31;;;29.28;33.53
13235;BME280;6683;48.506;9.050;2023-05-27T11:12:13;98471.28;;;29.48;33.35
13235;BME280;6683;48.506;9.050;2023-05-27T11:15:18;98464.94;;;29.66;32.90
13235;BME280;6683;48.506;9.050;2023-05-27T11:18:21;98459.91;;;29.86;32.76
13235;BME280;6683;48.506;9.050;2023-05-27T11:21:24;98463.38;;;30.14;32.49
13235;BME280;6683;48.506;9.050;2023-05-27T11:24:26;98455.88;;;30.33;31.49
13235;BME280;6683;48.506;9.050;2023-05-27T11:27:36;98448.75;;;30.46;31.40
13235;BME280;6683;48.506;9.050;2023-05-27T11:30:38;98456.72;;;30.56;31.43
13235;BME280;6683;48.506;9.050;2023-05-27T11:33:42;98449.22;;;30.61;31.27
13235;BME280;6683;48.506;9.050;2023-05-27T11:36:49;98439.22;;;30.57;30.71
13235;BME280;6683;48.506;9.050;2023-05-27T11:39:52;98433.44;;;30.50;31.01
13235;BME280;6683;48.506;9.050;2023-05-27T11:43:00;98440.09;;;30.44;31.01
13235;BME280;6683;48.506;9.050;2023-05-27T11:46:03;98421.66;;;30.41;31.15
13235;BME280;6683;48.506;9.050;2023-05-27T11:49:08;98417.44;;;30.35;30.90
13235;BME280;6683;48.506;9.050;2023-05-27T11:52:13;98421.09;;;30.30;30.78
13235;BME280;6683;48.506;9.050;2023-05-27T11:55:15;98416.97;;;30.19;30.82
13235;BME280;6683;48.506;9.050;2023-05-27T11:58:17;98410.66;;;30.10;30.62
13235;BME280;6683;48.506;9.050;2023-05-27T12:01:20;98417.94;;;30.01;30.94
13235;BME280;6683;48.506;9.050;2023-05-27T12:04:22;98406.66;;;29.94;31.13
13235;BME280;6683;48.506;9.050;2023-05-27T12:07:26;98402.00;;;29.94;31.36
13235;BME280;6683;48.506;9.050;2023-05-27T12:10:29;98402.19;;;29.98;31.05
13235;BME280;6683;48.506;9.050;2023-05-27T12:13:31;98386.84;;;30.02;30.86
13235;BME280;6683;48.506;9.050;2023-05-27T12:16:33;98379.06;;;30.09;31.16
13235;BME280;6683;48.506;9.050;2023-05-27T12:19:36;98376.25;;;30.14;30.98
13235;BME280;6683;48.506;9.050;2023-05-27T12:22:40;98371.09;;;30.13;30.61
13235;BME280;6683;48.506;9.050;2023-05-27T12:25:42;98379.25;;;30.13;30.60
13235;BME280;6683;48.506;9.050;2023-05-27T12:28:45;98377.47;;;30.08;30.43
13235;BME280;6683;48.506;9.050;2023-05-27T12:31:47;98369.31;;;30.08;30.33
13235;BME280;6683;48.506;9.050;2023-05-27T12:34:50;98376.16;;;30.06;30.26
13235;BME280;6683;48.506;9.050;2023-05-27T12:37:54;98361.84;;;30.00;30.25
13235;BME280;6683;48.506;9.050;2023-05-27T12:40:56;98362.81;;;29.95;30.22
13235;BME280;6683;48.506;9.050;2023-05-27T12:43:58;98373.19;;;29.93;30.31
13235;BME280;6683;48.506;9.050;2023-05-27T12:47:01;98364.41;;;29.96;30.62
13235;BME280;6683;48.506;9.050;2023-05-27T12:50:04;98352.59;;;30.01;29.95
13235;BME280;6683;48.506;9.050;2023-05-27T12:53:09;98356.63;;;30.04;30.15
13235;BME280;6683;48.506;9.050;2023-05-27T12:56:11;98338.06;;;30.06;29.89
13235;BME280;6683;48.506;9.050;2023-05-27T12:59:14;98336.94;;;30.07;29.80
13235;BME280;6683;48.506;9.050;2023-05-27T13:02:16;98341.28;;;30.08;29.56
13235;BME280;6683;48.506;9.050;2023-05-27T13:05:19;98339.41;;;30.17;29.65
13235;BME280;6683;48.506;9.050;2023-05-27T13:08:22;98341.19;;;30.21;29.39
13235;BME280;6683;48.506;9.050;2023-05-27T13:11:24;98338.13;;;30.14;29.01
13235;BME280;6683;48.506;9.050;2023-05-27T13:14:27;98327.44;;;30.04;29.07
13235;BME280;6683;48.506;9.050;2023-05-27T13:17:30;98330.31;;;29.99;29.23
13235;BME280;6683;48.506;9.050;2023-05-27T13:20:32;98324.06;;;29.98;29.26
13235;BME280;6683;48.506;9.050;2023-05-27T13:23:36;98319.75;;;29.97;29.25
13235;BME280;6683;48.506;9.050;2023-05-27T13:26:39;98319.34;;;29.90;28.96
13235;BME280;6683;48.506;9.050;2023-05-27T13:29:41;98308.41;;;29.82;29.36
13235;BME280;6683;48.506;9.050;2023-05-27T13:32:54;98317.19;;;29.79;29.60
13235;BME280;6683;48.506;9.050;2023-05-27T13:35:57;98321.00;;;29.78;29.27
13235;BME280;6683;48.506;9.050;2023-05-27T13:39:00;98309.72;;;29.71;29.16
13235;BME280;6683;48.506;9.050;2023-05-27T13:42:03;98297.34;;;29.65;29.29
13235;BME280;6683;48.506;9.050;2023-05-27T13:45:08;98298.25;;;29.60;29.16
13235;BME280;6683;48.506;9.050;2023-05-27T13:48:10;98291.03;;;29.56;29.43
13235;BME280;6683;48.506;9.050;2023-05-27T13:51:13;98284.78;;;29.55;29.10
13235;BME280;6683;48.506;9.050;2023-05-27T13:54:17;98291.53;;;29.58;29.30
13235;BME280;6683;48.506;9.050;2023-05-27T13:57:20;98287.25;;;29.65;29.36
13235;BME280;6683;48.506;9.050;2023-05-27T14:00:23;98291.19;;;29.73;29.01
13235;BME280;6683;48.506;9.050;2023-05-27T14:03:26;98291.69;;;29.75;29.10
13235;BME280;6683;48.506;9.050;2023-05-27T14:06:28;98281.09;;;29.73;29.01
13235;BME280;6683;48.506;9.050;2023-05-27T14:09:33;98286.72;;;29.77;28.72
13235;BME280;6683;48.506;9.050;2023-05-27T14:12:35;98283.41;;;29.80;29.01
13235;BME280;6683;48.506;9.050;2023-05-27T14:15:38;98278.28;;;29.78;28.47
13235;BME280;6683;48.506;9.050;2023-05-27T14:18:40;98285.13;;;29.76;28.72
13235;BME280;6683;48.506;9.050;2023-05-27T14:21:44;98273.44;;;29.75;28.42
13235;BME280;6683;48.506;9.050;2023-05-27T14:24:48;98270.72;;;29.75;28.65
13235;BME280;6683;48.506;9.050;2023-05-27T14:27:50;98273.75;;;29.74;28.43
13235;BME280;6683;48.506;9.050;2023-05-27T14:30:52;98269.41;;;29.73;28.65
13235;BME280;6683;48.506;9.050;2023-05-27T14:33:55;98275.28;;;29.66;28.61
13235;BME280;6683;48.506;9.050;2023-05-27T14:36:57;98263.81;;;29.56;28.43
13235;BME280;6683;48.506;9.050;2023-05-27T14:40:01;98267.78;;;29.50;28.52
13235;BME280;6683;48.506;9.050;2023-05-27T14:43:03;98266.25;;;29.44;28.49
13235;BME280;6683;48.506;9.050;2023-05-27T14:46:06;98258.53;;;29.37;28.85
13235;BME280;6683;48.506;9.050;2023-05-27T14:49:08;98254.31;;;29.31;28.81
13235;BME280;6683;48.506;9.050;2023-05-27T14:52:10;98253.75;;;29.20;28.38
13235;BME280;6683;48.506;9.050;2023-05-27T14:55:14;98251.19;;;29.10;28.46
13235;BME280;6683;48.506;9.050;2023-05-27T14:58:16;98253.03;;;29.01;28.76
13235;BME280;6683;48.506;9.050;2023-05-27T15:01:19;98259.78;;;28.90;28.87
13235;BME280;6683;48.506;9.050;2023-05-27T15:04:21;98251.22;;;28.83;28.80
13235;BME280;6683;48.506;9.050;2023-05-27T15:07:24;98252.44;;;28.77;28.97
13235;BME280;6683;48.506;9.050;2023-05-27T15:10:28;98248.22;;;28.71;28.90
13235;BME280;6683;48.506;9.050;2023-05-27T15:13:30;98241.78;;;28.67;29.16
13235;BME280;6683;48.506;9.050;2023-05-27T15:16:33;98244.59;;;28.62;29.15
13235;BME280;6683;48.506;9.050;2023-05-27T15:19:35;98256.66;;;28.56;29.02
13235;BME280;6683;48.506;9.050;2023-05-27T15:22:38;98247.78;;;28.51;28.91
13235;BME280;6683;48.506;9.050;2023-05-27T15:25:42;98242.16;;;28.47;29.31
13235;BME280;6683;48.506;9.050;2023-05-27T15:28:44;98245.47;;;28.44;29.60
13235;BME280;6683;48.506;9.050;2023-05-27T15:31:47;98253.91;;;28.42;29.39
13235;BME280;6683;48.506;9.050;2023-05-27T15:34:49;98239.84;;;28.40;29.01
13235;BME280;6683;48.506;9.050;2023-05-27T15:37:52;98242.03;;;28.38;28.90
13235;BME280;6683;48.506;9.050;2023-05-27T15:40:56;98235.31;;;28.36;29.22
13235;BME280;6683;48.506;9.050;2023-05-27T15:43:58;98233.41;;;28.36;29.12
13235;BME280;6683;48.506;9.050;2023-05-27T15:47:00;98235.00;;;28.37;29.19
13235;BME280;6683;48.506;9.050;2023-05-27T15:50:04;98224.56;;;28.44;29.11
13235;BME280;6683;48.506;9.050;2023-05-27T15:53:07;98220.63;;;28.51;28.55
13235;BME280;6683;48.506;9.050;2023-05-27T15:56:11;98219.72;;;28.55;28.71
13235;BME280;6683;48.506;9.050;2023-05-27T15:59:14;98212.38;;;28.56;28.44
13235;BME280;6683;48.506;9.050;2023-05-27T16:02:16;98215.91;;;28.56;28.76
13235;BME280;6683;48.506;9.050;2023-05-27T16:05:18;98207.78;;;28.56;28.64
13235;BME280;6683;48.506;9.050;2023-05-27T16:08:21;98218.91;;;28.55;28.31
13235;BME280;6683;48.506;9.050;2023-05-27T16:11:25;98209.41;;;28.57;28.42
13235;BME280;6683;48.506;9.050;2023-05-27T16:14:28;98201.13;;;28.62;28.27
13235;BME280;6683;48.506;9.050;2023-05-27T16:17:33;98204.38;;;28.64;28.35
13235;BME280;6683;48.506;9.050;2023-05-27T16:20:36;98199.94;;;28.68;28.19
13235;BME280;6683;48.506;9.050;2023-05-27T16:23:38;98205.75;;;28.75;28.15